createdAt,value
2022-09-12T00:00:12.129Z,23.75
2022-09-12T00:02:38.906Z,26.27
2022-09-12T00:05:07.461Z,25.98
2022-09-12T00:07:34.590Z,25.15
2022-09-12T00:10:01.351Z,28.45
2022-09-12T00:12:28.098Z,23.83
2022-09-12T00:14:54.910Z,26.50
2022-09-12T00:17:21.689Z,25.75
2022-09-12T00:19:48.443Z,24.95
2022-09-12T00:22:15.259Z,30.35
2022-09-12T00:24:42.005Z,28.23
2022-09-12T00:27:08.788Z,26.08
2022-09-12T00:29:35.578Z,26.48
2022-09-12T00:32:02.505Z,28.40
2022-09-12T00:34:29.298Z,28.17
2022-09-12T00:36:56.195Z,29.50
2022-09-12T00:39:22.949Z,26.88
2022-09-12T00:41:50.094Z,28.00
2022-09-12T00:44:37.206Z,28.20
2022-09-12T00:47:28.346Z,28.83
2022-09-12T00:50:12.652Z,25.95
2022-09-12T00:52:45.216Z,30.15
2022-09-12T00:55:17.789Z,29.35
2022-09-12T00:58:11.213Z,28.60
2022-09-12T01:00:38.367Z,26.90
2022-09-12T01:03:09.645Z,29.98
2022-09-12T01:05:44.161Z,29.90
2022-09-12T01:08:10.993Z,30.50
2022-09-12T01:10:38.685Z,30.25
2022-09-12T01:13:06.418Z,30.60
2022-09-12T01:15:33.281Z,26.48
2022-09-12T01:18:09.797Z,27.42
2022-09-12T01:20:39.674Z,24.90
2022-09-12T01:23:31.249Z,27.90
2022-09-12T01:26:22.529Z,29.65
2022-09-12T01:29:08.057Z,27.73
2022-09-12T01:31:41.266Z,25.92
2022-09-12T01:34:54.629Z,26.92
2022-09-12T01:37:57.277Z,27.27
2022-09-12T01:40:27.182Z,27.92
2022-09-12T01:43:01.049Z,28.40
2022-09-12T01:45:34.189Z,28.25
2022-09-12T01:48:24.980Z,27.95
2022-09-12T01:51:11.582Z,26.58
2022-09-12T01:54:07.018Z,26.20
2022-09-12T01:56:34.750Z,26.85
2022-09-12T01:59:21.819Z,26.13
2022-09-12T02:02:06.284Z,27.10
2022-09-12T02:04:52.209Z,25.70
2022-09-12T02:07:26.318Z,25.42
2022-09-12T02:10:30.420Z,28.63
2022-09-12T02:13:06.106Z,25.98
2022-09-12T02:15:52.574Z,26.58
2022-09-12T02:18:19.562Z,27.77
2022-09-12T02:20:48.721Z,28.23
2022-09-12T02:23:25.316Z,26.88
2022-09-12T02:25:54.913Z,25.70
2022-09-12T02:28:27.822Z,27.77
2022-09-12T02:31:14.817Z,27.27
2022-09-12T02:33:46.936Z,26.63
2022-09-12T02:36:34.511Z,24.27
2022-09-12T02:39:01.464Z,24.83
2022-09-12T02:41:28.334Z,25.77
2022-09-12T02:43:55.118Z,26.70
2022-09-12T02:46:39.321Z,27.48
2022-09-12T02:49:06.845Z,25.70
2022-09-12T02:51:35.633Z,25.33
2022-09-12T02:54:03.777Z,27.13
2022-09-12T02:56:31.146Z,25.88
2022-09-12T02:59:03.255Z,27.23
2022-09-12T03:01:33.114Z,26.02
2022-09-12T03:04:26.571Z,25.35
2022-09-12T03:06:54.573Z,26.35
2022-09-12T03:09:26.771Z,26.88
2022-09-12T03:12:08.783Z,27.27
2022-09-12T03:14:50.022Z,24.83
2022-09-12T03:17:26.831Z,24.35
2022-09-12T03:20:35.911Z,26.73
2022-09-12T03:23:17.667Z,22.65
2022-09-12T03:25:49.580Z,26.40
2022-09-12T03:28:16.567Z,26.35
2022-09-12T03:30:44.984Z,25.10
2022-09-12T03:33:12.766Z,25.13
2022-09-12T03:35:39.539Z,25.17
2022-09-12T03:38:08.066Z,26.27
2022-09-12T03:40:35.927Z,24.02
2022-09-12T03:43:03.106Z,24.65
2022-09-12T03:45:29.940Z,26.80
2022-09-12T03:47:56.816Z,25.25
2022-09-12T03:50:23.630Z,26.15
2022-09-12T03:52:50.479Z,25.05
2022-09-12T03:55:17.622Z,26.35
2022-09-12T03:57:44.608Z,24.55
2022-09-12T04:00:12.896Z,22.55
2022-09-12T04:02:42.121Z,22.02
2022-09-12T04:05:09.220Z,24.83
2022-09-12T04:07:36.062Z,26.48
2022-09-12T04:10:03.607Z,25.92
2022-09-12T04:12:30.821Z,24.60
2022-09-12T04:14:57.615Z,24.08
2022-09-12T04:17:24.440Z,23.73
2022-09-12T04:19:51.301Z,24.83
2022-09-12T04:22:18.074Z,24.77
2022-09-12T04:24:45.059Z,23.80
2022-09-12T04:27:11.801Z,24.83
2022-09-12T04:29:38.569Z,24.67
2022-09-12T04:32:05.713Z,22.70
2022-09-12T04:34:32.641Z,23.65
2022-09-12T04:36:59.409Z,23.85
2022-09-12T04:39:26.315Z,22.80
2022-09-12T04:41:53.079Z,23.27
2022-09-12T04:44:19.844Z,23.77
2022-09-12T04:46:47.129Z,23.30
2022-09-12T04:49:16.244Z,21.48
2022-09-12T04:51:43.100Z,23.50
2022-09-12T04:54:17.694Z,21.48
2022-09-12T04:56:46.497Z,23.83
2022-09-12T04:59:14.222Z,21.35
2022-09-12T05:01:41.507Z,22.25
2022-09-12T05:04:10.094Z,20.35
2022-09-12T05:06:37.373Z,22.17
2022-09-12T05:09:05.201Z,23.90
2022-09-12T05:12:00.105Z,23.83
2022-09-12T05:14:20.517Z,20.90
2022-09-12T05:16:49.689Z,21.52
2022-09-12T05:19:16.726Z,22.20
2022-09-12T05:21:43.859Z,24.55
2022-09-12T05:24:10.874Z,24.50
2022-09-12T05:26:37.621Z,22.92
2022-09-12T05:29:04.765Z,22.98
2022-09-12T05:31:31.535Z,23.70
2022-09-12T05:33:58.330Z,22.98
2022-09-12T05:36:27.345Z,22.02
2022-09-12T05:38:54.346Z,24.00
2022-09-12T05:41:25.962Z,24.25
2022-09-12T05:43:58.248Z,22.20
2022-09-12T05:46:26.892Z,22.15
2022-09-12T05:48:56.437Z,24.67
2022-09-12T05:51:25.499Z,23.58
2022-09-12T05:53:54.840Z,22.75
2022-09-12T05:56:27.914Z,23.67
2022-09-12T05:58:56.103Z,24.80
2022-09-12T06:01:23.052Z,25.65
2022-09-12T06:03:54.786Z,24.80
2022-09-12T06:06:23.193Z,24.30
2022-09-12T06:08:51.969Z,25.60
2022-09-12T06:11:20.881Z,24.48
2022-09-12T06:13:47.711Z,22.42
2022-09-12T06:16:18.603Z,23.90
2022-09-12T06:18:56.017Z,25.83
2022-09-12T06:21:23.196Z,23.67
2022-09-12T06:23:50.670Z,22.75
2022-09-12T06:26:18.494Z,22.65
2022-09-12T06:28:45.542Z,23.83
2022-09-12T06:31:14.000Z,23.05
2022-09-12T06:33:42.838Z,23.55
2022-09-12T06:36:14.118Z,23.83
2022-09-12T06:38:40.953Z,22.27
2022-09-12T06:41:09.415Z,22.85
2022-09-12T06:43:36.954Z,22.52
2022-09-12T06:46:04.146Z,21.13
2022-09-12T06:48:31.028Z,23.27
2022-09-12T06:50:59.308Z,21.90
2022-09-12T06:53:26.840Z,21.67
2022-09-12T06:56:00.673Z,28.33
2022-09-12T06:58:28.010Z,29.05
2022-09-12T07:01:04.252Z,35.20
2022-09-12T07:03:31.171Z,29.55
2022-09-12T07:06:02.989Z,35.80
2022-09-12T07:08:31.358Z,33.75
2022-09-12T07:10:59.563Z,30.60
2022-09-12T07:13:26.502Z,30.10
2022-09-12T07:15:53.337Z,28.50
2022-09-12T07:18:21.091Z,26.67
2022-09-12T07:20:47.839Z,25.70
2022-09-12T07:23:14.647Z,25.83
2022-09-12T07:25:41.902Z,26.45
2022-09-12T07:28:08.673Z,24.13
2022-09-12T07:30:36.937Z,25.63
2022-09-12T07:33:03.841Z,22.85
2022-09-12T07:35:33.996Z,24.35
2022-09-12T07:38:00.917Z,22.13
2022-09-12T07:40:27.770Z,21.52
2022-09-12T07:42:54.645Z,21.65
2022-09-12T07:45:21.518Z,20.98
2022-09-12T07:47:48.306Z,22.42
2022-09-12T07:50:15.770Z,18.48
2022-09-12T07:52:43.069Z,19.35
2022-09-12T07:55:10.064Z,17.30
2022-09-12T07:57:36.972Z,17.27
2022-09-12T08:00:05.736Z,16.55
2022-09-12T08:02:32.613Z,15.27
2022-09-12T08:04:59.466Z,14.50
2022-09-12T08:07:26.512Z,14.48
2022-09-12T08:09:53.766Z,14.70
2022-09-12T08:12:20.598Z,14.27
2022-09-12T08:14:48.303Z,13.73
2022-09-12T08:17:15.098Z,12.75
2022-09-12T08:19:42.160Z,14.68
2022-09-12T08:22:09.977Z,13.98
2022-09-12T08:24:39.438Z,12.77
2022-09-12T08:27:07.131Z,14.30
2022-09-12T08:29:33.970Z,13.02
2022-09-12T08:32:00.737Z,12.77
2022-09-12T08:34:30.091Z,13.40
2022-09-12T08:36:57.671Z,12.13
2022-09-12T08:39:27.758Z,12.57
2022-09-12T08:42:05.379Z,12.93
2022-09-12T08:44:43.390Z,10.65
2022-09-12T08:47:27.224Z,11.18
2022-09-12T08:49:56.981Z,10.60
2022-09-12T08:52:37.651Z,11.57
2022-09-12T08:55:06.495Z,11.32
2022-09-12T08:57:33.573Z,10.45
2022-09-12T09:00:00.726Z,10.25
2022-09-12T09:02:34.528Z,9.15
2022-09-12T09:05:04.840Z,9.98
2022-09-12T09:07:58.229Z,9.48
2022-09-12T09:10:31.791Z,9.02
2022-09-12T09:13:12.137Z,8.45
2022-09-12T09:15:49.618Z,9.13
2022-09-12T09:18:31.426Z,10.00
2022-09-12T09:21:12.135Z,7.88
2022-09-12T09:23:43.763Z,8.30
2022-09-12T09:26:14.820Z,7.97
2022-09-12T09:28:51.763Z,8.18
2022-09-12T09:31:23.257Z,8.30
2022-09-12T09:33:51.356Z,7.95
2022-09-12T09:36:22.528Z,7.07
2022-09-12T09:38:51.089Z,6.88
2022-09-12T09:41:32.566Z,6.80
2022-09-12T09:43:59.748Z,7.15
2022-09-12T09:46:27.093Z,7.07
2022-09-12T09:48:53.990Z,7.25
2022-09-12T09:51:28.269Z,7.55
2022-09-12T09:53:58.702Z,7.00
2022-09-12T09:56:28.347Z,7.70
2022-09-12T09:58:55.246Z,7.10
2022-09-12T10:01:22.532Z,6.65
2022-09-12T10:03:52.708Z,6.30
2022-09-12T10:06:32.905Z,6.63
2022-09-12T10:09:09.926Z,6.90
2022-09-12T10:11:36.748Z,6.43
2022-09-12T10:14:04.729Z,6.70
2022-09-12T10:16:33.714Z,6.45
2022-09-12T10:19:02.290Z,6.18
2022-09-12T10:21:33.469Z,5.35
2022-09-12T10:24:05.216Z,5.28
2022-09-12T10:26:37.750Z,5.53
2022-09-12T10:29:26.178Z,5.03
2022-09-12T10:31:55.645Z,5.20
2022-09-12T10:34:42.549Z,5.07
2022-09-12T10:37:11.121Z,5.03
2022-09-12T10:39:38.624Z,4.97
2022-09-12T10:42:05.982Z,4.75
2022-09-12T10:44:34.198Z,5.85
2022-09-12T10:47:19.411Z,5.32
2022-09-12T10:49:46.175Z,4.95
2022-09-12T10:52:30.925Z,4.22
2022-09-12T10:54:57.841Z,3.97
2022-09-12T10:57:47.649Z,4.65
2022-09-12T11:00:19.866Z,4.55
2022-09-12T11:02:58.981Z,5.20
2022-09-12T11:05:36.692Z,4.75
2022-09-12T11:08:40.994Z,4.15
2022-09-12T11:11:22.343Z,4.72
2022-09-12T11:13:51.918Z,5.38
2022-09-12T11:16:57.869Z,4.43
2022-09-12T11:19:47.316Z,4.53
2022-09-12T11:22:39.123Z,3.83
2022-09-12T11:25:08.731Z,4.13
2022-09-12T11:27:38.356Z,5.00
2022-09-12T11:30:12.592Z,3.75
2022-09-12T11:33:13.309Z,3.55
2022-09-12T11:35:58.245Z,4.18
2022-09-12T11:38:47.996Z,3.13
2022-09-12T11:41:22.275Z,3.63
2022-09-12T11:43:54.911Z,3.03
2022-09-12T11:46:25.139Z,4.40
2022-09-12T11:49:13.529Z,5.07
2022-09-12T11:52:00.559Z,4.28
2022-09-12T11:54:35.582Z,3.63
2022-09-12T11:57:26.057Z,3.50
2022-09-12T12:00:04.626Z,3.33
2022-09-12T12:02:40.429Z,2.80
2022-09-12T12:05:28.795Z,3.70
2022-09-12T12:07:57.351Z,3.80
2022-09-12T12:10:31.054Z,3.63
2022-09-12T12:12:57.951Z,3.58
2022-09-12T12:15:25.287Z,3.08
2022-09-12T12:18:17.990Z,3.55
2022-09-12T12:20:44.850Z,4.15
2022-09-12T12:23:26.214Z,3.30
2022-09-12T12:25:55.075Z,3.35
2022-09-12T12:28:50.354Z,3.35
2022-09-12T12:31:17.416Z,4.45
2022-09-12T12:33:44.191Z,4.15
2022-09-12T12:36:33.933Z,3.08
2022-09-12T12:39:21.516Z,3.35
2022-09-12T12:41:48.335Z,3.50
2022-09-12T12:44:47.206Z,3.35
2022-09-12T12:47:21.878Z,3.17
2022-09-12T12:49:53.757Z,3.67
2022-09-12T12:52:20.592Z,3.05
2022-09-12T12:54:47.345Z,2.55
2022-09-12T12:57:48.510Z,3.60
2022-09-12T13:00:36.266Z,3.42
2022-09-12T13:03:09.011Z,3.05
2022-09-12T13:05:42.861Z,3.05
2022-09-12T13:08:12.014Z,3.13
2022-09-12T13:10:38.842Z,3.00
2022-09-12T13:13:07.356Z,2.90
2022-09-12T13:15:37.170Z,3.63
2022-09-12T13:18:11.619Z,2.92
2022-09-12T13:20:51.477Z,3.60
2022-09-12T13:23:30.653Z,3.42
2022-09-12T13:25:58.941Z,2.95
2022-09-12T13:28:26.476Z,3.35
2022-09-12T13:31:12.304Z,3.45
2022-09-12T13:33:52.777Z,3.55
2022-09-12T13:36:38.389Z,3.80
2022-09-12T13:39:20.509Z,4.10
2022-09-12T13:42:03.369Z,3.70
2022-09-12T13:44:30.227Z,3.55
2022-09-12T13:46:59.166Z,3.10
2022-09-12T13:49:36.010Z,2.95
2022-09-12T13:52:25.559Z,3.00
2022-09-12T13:54:53.706Z,3.67
2022-09-12T13:57:37.719Z,2.90
2022-09-12T14:00:18.187Z,3.17
2022-09-12T14:02:45.225Z,3.10
2022-09-12T14:05:21.249Z,3.13
2022-09-12T14:07:55.281Z,3.20
2022-09-12T14:10:26.687Z,3.05
2022-09-12T14:12:53.546Z,2.85
2022-09-12T14:15:25.673Z,3.42
2022-09-12T14:17:54.489Z,2.80
2022-09-12T14:20:23.361Z,3.15
2022-09-12T14:22:53.185Z,3.50
2022-09-12T14:25:21.707Z,3.80
2022-09-12T14:27:52.831Z,4.15
2022-09-12T14:30:28.767Z,2.97
2022-09-12T14:33:10.750Z,2.85
2022-09-12T14:35:44.898Z,3.42
2022-09-12T14:38:17.771Z,2.90
2022-09-12T14:41:06.674Z,2.67
2022-09-12T14:43:41.452Z,2.97
2022-09-12T14:46:14.387Z,3.10
2022-09-12T14:48:44.690Z,2.60
2022-09-12T14:51:51.248Z,2.30
2022-09-12T14:54:31.171Z,2.42
2022-09-12T14:57:21.951Z,2.33
2022-09-12T14:59:48.737Z,2.10
2022-09-12T15:02:25.861Z,2.85
2022-09-12T15:04:54.663Z,2.85
2022-09-12T15:07:34.314Z,3.63
2022-09-12T15:10:02.810Z,2.72
2022-09-12T15:12:29.579Z,2.60
2022-09-12T15:15:16.074Z,2.28
2022-09-12T15:17:42.892Z,2.78
2022-09-12T15:20:10.269Z,2.85
2022-09-12T15:22:37.783Z,3.20
2022-09-12T15:25:06.647Z,2.95
2022-09-12T15:27:33.423Z,2.70
2022-09-12T15:30:00.586Z,2.88
2022-09-12T15:32:31.141Z,2.65
2022-09-12T15:34:57.942Z,2.25
2022-09-12T15:37:24.761Z,2.17
2022-09-12T15:39:51.780Z,2.53
2022-09-12T15:42:27.714Z,2.53
2022-09-12T15:44:54.531Z,2.35
2022-09-12T15:47:23.101Z,2.45
2022-09-12T15:49:50.410Z,1.88
2022-09-12T15:52:17.291Z,2.25
2022-09-12T15:54:44.134Z,2.63
2022-09-12T15:57:10.885Z,2.33
2022-09-12T15:59:37.635Z,2.00
2022-09-12T16:02:04.747Z,2.35
2022-09-12T16:04:31.702Z,2.90
2022-09-12T16:06:58.521Z,2.53
2022-09-12T16:09:25.371Z,2.28
2022-09-12T16:11:52.478Z,2.10
2022-09-12T16:14:20.446Z,2.00
2022-09-12T16:16:52.860Z,2.30
2022-09-12T16:19:19.668Z,2.05
2022-09-12T16:21:46.516Z,2.17
2022-09-12T16:24:13.304Z,2.00
2022-09-12T16:26:40.067Z,2.00
2022-09-12T16:29:06.966Z,2.28
2022-09-12T16:31:34.075Z,2.08
2022-09-12T16:34:00.893Z,1.50
2022-09-12T16:36:27.656Z,2.10
2022-09-12T16:38:54.598Z,2.28
2022-09-12T16:41:22.810Z,1.77
2022-09-12T16:43:49.590Z,2.17
2022-09-12T16:46:19.059Z,2.08
2022-09-12T16:48:52.108Z,1.98
2022-09-12T16:51:20.814Z,2.50
2022-09-12T16:53:48.250Z,2.30
2022-09-12T16:56:15.211Z,1.88
2022-09-12T16:58:42.351Z,1.92
2022-09-12T17:01:09.169Z,2.22
2022-09-12T17:03:36.163Z,1.90
2022-09-12T17:06:05.081Z,1.80
2022-09-12T17:08:33.801Z,1.92
2022-09-12T17:11:05.357Z,1.50
2022-09-12T17:13:46.852Z,1.83
2022-09-12T17:16:19.370Z,2.22
2022-09-12T17:18:46.242Z,1.95
2022-09-12T17:21:13.065Z,2.22
2022-09-12T17:23:40.027Z,2.22
2022-09-12T17:26:07.064Z,1.95
2022-09-12T17:28:33.930Z,2.17
2022-09-12T17:31:02.114Z,2.47
2022-09-12T17:33:29.245Z,2.03
2022-09-12T17:36:00.246Z,1.70
2022-09-12T17:38:27.758Z,2.30
2022-09-12T17:40:59.867Z,1.90
2022-09-12T17:43:26.910Z,1.73
2022-09-12T17:45:57.392Z,2.00
2022-09-12T17:48:24.258Z,1.88
2022-09-12T17:50:51.022Z,1.98
2022-09-12T17:53:17.963Z,1.92
2022-09-12T17:55:44.710Z,1.83
2022-09-12T17:58:11.907Z,2.30
2022-09-12T18:00:57.467Z,2.25
2022-09-12T18:03:25.119Z,1.80
2022-09-12T18:05:55.909Z,2.30
2022-09-12T18:08:23.476Z,1.83
2022-09-12T18:10:51.134Z,2.13
2022-09-12T18:13:17.971Z,1.80
2022-09-12T18:15:44.801Z,1.75
2022-09-12T18:18:11.678Z,2.30
2022-09-12T18:20:38.476Z,2.47
2022-09-12T18:23:05.327Z,2.17
2022-09-12T18:25:32.087Z,2.35
2022-09-12T18:27:58.854Z,2.58
2022-09-12T18:30:25.696Z,2.92
2022-09-12T18:32:52.470Z,2.65
2022-09-12T18:35:19.274Z,2.80
2022-09-12T18:37:46.047Z,2.20
2022-09-12T18:40:12.907Z,2.63
2022-09-12T18:42:39.842Z,2.50
2022-09-12T18:45:07.257Z,2.60
2022-09-12T18:47:34.028Z,2.75
2022-09-12T18:50:01.367Z,2.92
2022-09-12T18:52:28.170Z,2.97
2022-09-12T18:54:54.927Z,2.85
2022-09-12T18:57:21.722Z,2.63
2022-09-12T18:59:48.547Z,2.42
2022-09-12T19:02:18.310Z,3.00
2022-09-12T19:04:45.141Z,2.50
2022-09-12T19:07:11.986Z,2.80
2022-09-12T19:09:38.989Z,2.85
2022-09-12T19:12:06.022Z,2.70
2022-09-12T19:14:32.883Z,2.80
2022-09-12T19:16:59.830Z,2.78
2022-09-12T19:19:26.704Z,2.78
2022-09-12T19:21:53.503Z,2.88
2022-09-12T19:24:21.787Z,2.72
2022-09-12T19:26:49.077Z,3.20
2022-09-12T19:29:16.772Z,2.75
2022-09-12T19:31:44.195Z,3.35
2022-09-12T19:34:11.257Z,2.80
2022-09-12T19:36:45.414Z,3.22
2022-09-12T19:39:13.292Z,3.05
2022-09-12T19:41:40.081Z,2.50
2022-09-12T19:44:06.907Z,2.70
2022-09-12T19:46:33.782Z,3.10
2022-09-12T19:49:00.596Z,2.65
2022-09-12T19:51:27.416Z,3.25
2022-09-12T19:53:54.266Z,2.90
2022-09-12T19:56:21.369Z,2.70
2022-09-12T19:58:53.472Z,2.90
2022-09-12T20:01:24.983Z,3.22
2022-09-12T20:03:53.828Z,2.83
2022-09-12T20:06:20.765Z,3.22
2022-09-12T20:08:47.763Z,3.40
2022-09-12T20:11:17.457Z,3.03
2022-09-12T20:13:44.778Z,3.00
2022-09-12T20:16:20.358Z,2.92
2022-09-12T20:18:49.492Z,3.42
2022-09-12T20:21:18.026Z,3.08
2022-09-12T20:23:45.314Z,3.05
2022-09-12T20:26:14.224Z,2.83
2022-09-12T20:28:41.203Z,3.00
2022-09-12T20:31:12.688Z,3.38
2022-09-12T20:33:39.562Z,3.33
2022-09-12T20:36:14.222Z,3.22
2022-09-12T20:38:41.610Z,3.47
2022-09-12T20:41:12.366Z,3.67
2022-09-12T20:43:40.100Z,3.90
2022-09-12T20:46:07.763Z,4.22
2022-09-12T20:48:36.017Z,4.00
2022-09-12T20:51:02.926Z,4.60
2022-09-12T20:53:32.945Z,4.90
2022-09-12T20:56:01.955Z,4.22
2022-09-12T20:58:28.709Z,4.80
2022-09-12T21:00:55.531Z,4.45
2022-09-12T21:03:22.386Z,5.10
2022-09-12T21:05:49.151Z,4.82
2022-09-12T21:08:16.021Z,4.85
2022-09-12T21:10:43.555Z,4.47
2022-09-12T21:13:11.164Z,4.50
2022-09-12T21:15:38.763Z,3.95
2022-09-12T21:18:05.671Z,4.38
2022-09-12T21:20:32.463Z,4.15
2022-09-12T21:22:59.389Z,4.65
2022-09-12T21:25:26.167Z,5.03
2022-09-12T21:27:52.913Z,4.63
2022-09-12T21:30:21.910Z,4.10
2022-09-12T21:32:48.667Z,4.03
2022-09-12T21:35:15.568Z,3.63
2022-09-12T21:37:42.528Z,4.00
2022-09-12T21:40:09.633Z,3.65
2022-09-12T21:42:36.422Z,4.30
2022-09-12T21:45:03.315Z,3.60
2022-09-12T21:47:30.329Z,4.65
2022-09-12T21:49:57.682Z,4.05
2022-09-12T21:52:24.501Z,3.75
2022-09-12T21:54:51.257Z,3.85
2022-09-12T21:57:18.210Z,3.85
2022-09-12T21:59:44.974Z,3.72
2022-09-12T22:02:12.457Z,3.45
2022-09-12T22:04:39.302Z,4.70
2022-09-12T22:07:06.105Z,3.42
2022-09-12T22:09:34.451Z,3.97
2022-09-12T22:12:02.342Z,4.75
2022-09-12T22:14:29.565Z,4.00
2022-09-12T22:16:56.923Z,3.78
2022-09-12T22:19:23.770Z,4.15
2022-09-12T22:22:09.048Z,3.47
2022-09-12T22:24:35.895Z,3.70
2022-09-12T22:27:05.838Z,3.72
2022-09-12T22:29:32.975Z,3.85
2022-09-12T22:32:00.149Z,4.47
2022-09-12T22:34:27.574Z,3.95
2022-09-12T22:36:54.398Z,4.20
2022-09-12T22:39:21.179Z,4.25
2022-09-12T22:41:47.966Z,4.40
2022-09-12T22:44:15.122Z,4.50
2022-09-12T22:46:41.932Z,4.13
2022-09-12T22:49:08.857Z,4.32
2022-09-12T22:51:36.015Z,4.15
2022-09-12T22:54:02.847Z,4.03
2022-09-12T22:56:29.625Z,4.18
2022-09-12T22:58:56.717Z,5.13
2022-09-12T23:01:24.085Z,4.32
2022-09-12T23:03:51.232Z,4.57
2022-09-12T23:06:18.154Z,4.22
2022-09-12T23:08:45.115Z,4.70
2022-09-12T23:11:13.512Z,4.80
2022-09-12T23:13:42.787Z,4.00
2022-09-12T23:16:13.534Z,5.30
2022-09-12T23:18:40.350Z,4.50
2022-09-12T23:21:08.709Z,4.75
2022-09-12T23:23:35.602Z,4.97
2022-09-12T23:26:15.141Z,4.63
2022-09-12T23:28:42.411Z,4.50
2022-09-12T23:31:10.015Z,5.20
2022-09-12T23:33:36.867Z,5.00
2022-09-12T23:36:05.753Z,5.32
2022-09-12T23:38:33.291Z,6.05
2022-09-12T23:41:00.331Z,5.72
2022-09-12T23:43:27.235Z,5.53
2022-09-12T23:45:54.054Z,5.85
2022-09-12T23:48:20.838Z,6.05
2022-09-12T23:50:48.139Z,6.00
2022-09-12T23:53:15.791Z,6.55
2022-09-12T23:55:43.142Z,5.95
2022-09-12T23:58:10.001Z,6.93
